createdAt,value
2022-11-04T17:58:32.859Z,22.65
2022-11-04T18:01:03.372Z,22.90
2022-11-04T18:03:32.134Z,23.11
2022-11-04T18:05:58.584Z,23.45
2022-11-04T18:08:24.979Z,23.65
2022-11-04T18:10:51.281Z,23.78
2022-11-04T18:13:17.644Z,23.89
2022-11-04T18:15:43.960Z,23.94
2022-11-04T18:18:10.310Z,24.08
2022-11-04T18:20:36.629Z,24.07
2022-11-04T18:23:02.931Z,24.11
2022-11-04T18:25:29.492Z,24.12
2022-11-04T18:27:55.810Z,24.17
2022-11-04T18:30:22.107Z,24.18
2022-11-04T18:32:48.412Z,24.25
2022-11-04T18:35:14.819Z,24.28
2022-11-04T18:37:46.691Z,24.35
2022-11-04T18:40:13.486Z,24.35
2022-11-04T18:42:39.787Z,24.36
2022-11-04T18:45:06.091Z,24.41
2022-11-04T18:47:32.407Z,24.16
2022-11-04T18:49:58.752Z,23.95
2022-11-04T18:52:25.068Z,23.98
2022-11-04T18:54:51.386Z,23.92
2022-11-04T18:57:17.710Z,24.04
2022-11-04T18:59:44.021Z,24.13
2022-11-04T19:02:10.453Z,24.16
2022-11-04T19:04:36.882Z,24.16
2022-11-04T19:07:03.189Z,24.09
2022-11-04T19:09:45.983Z,24.04
2022-11-04T19:12:13.292Z,24.10
2022-11-04T19:14:39.603Z,24.07
2022-11-04T19:17:05.906Z,24.07
2022-11-04T19:19:32.288Z,24.07
2022-11-04T19:21:58.631Z,24.07
2022-11-04T19:24:24.945Z,24.10
2022-11-04T19:26:51.296Z,24.09
2022-11-04T19:29:17.627Z,24.08
2022-11-04T19:31:43.932Z,24.11
2022-11-04T19:34:10.238Z,24.02
2022-11-04T19:36:36.576Z,24.06
2022-11-04T19:39:02.883Z,24.05
2022-11-04T19:41:29.247Z,24.04
2022-11-04T19:43:55.557Z,24.06
2022-11-04T19:46:21.864Z,24.05
2022-11-04T19:48:48.174Z,24.07
2022-11-04T19:51:14.489Z,24.17
2022-11-04T19:53:40.790Z,24.14
2022-11-04T19:56:07.264Z,24.23
2022-11-04T19:58:33.655Z,24.22
2022-11-04T20:01:00.024Z,24.25
2022-11-04T20:03:26.536Z,24.27
2022-11-04T20:05:52.856Z,24.29
2022-11-04T20:08:19.167Z,24.32
2022-11-04T20:10:45.486Z,24.29
2022-11-04T20:13:11.785Z,24.31
2022-11-04T20:15:38.100Z,24.30
2022-11-04T20:18:04.446Z,24.30
2022-11-04T20:20:30.763Z,24.29
2022-11-04T20:22:57.076Z,24.28
2022-11-04T20:25:23.395Z,24.26
2022-11-04T20:27:49.703Z,24.24
2022-11-04T20:30:16.026Z,24.26
2022-11-04T20:32:42.320Z,24.26
2022-11-04T20:35:08.635Z,24.26
2022-11-04T20:37:34.933Z,24.26
2022-11-04T20:40:01.283Z,24.28
2022-11-04T20:42:27.663Z,24.24
2022-11-04T20:44:53.990Z,24.27
2022-11-04T20:47:20.340Z,24.26
2022-11-04T20:49:46.694Z,24.27
2022-11-04T20:52:13.030Z,24.29
2022-11-04T20:54:39.395Z,24.24
2022-11-04T20:57:05.705Z,24.27
2022-11-04T20:59:32.013Z,24.32
2022-11-04T21:01:58.370Z,24.32
2022-11-04T21:04:24.757Z,24.36
2022-11-04T21:06:51.112Z,24.35
2022-11-04T21:09:17.448Z,24.35
2022-11-04T21:11:43.745Z,24.33
2022-11-04T21:14:10.072Z,24.37
2022-11-04T21:16:36.376Z,24.34
2022-11-04T21:19:02.677Z,24.39
2022-11-04T21:21:29.068Z,24.34
2022-11-04T21:23:55.413Z,24.34
2022-11-04T21:26:21.722Z,24.32
2022-11-04T21:28:48.024Z,24.30
2022-11-04T21:31:14.329Z,24.32
2022-11-04T21:33:40.619Z,24.35
2022-11-04T21:36:06.913Z,24.33
2022-11-04T21:38:33.219Z,24.36
2022-11-04T21:40:59.555Z,24.34
2022-11-04T21:43:25.864Z,24.36
2022-11-04T21:45:52.204Z,24.30
2022-11-04T21:48:18.509Z,24.24
2022-11-04T21:50:44.826Z,24.24
2022-11-04T21:53:11.143Z,24.28
2022-11-04T21:55:37.439Z,24.27
2022-11-04T21:58:03.759Z,24.24
2022-11-04T22:00:30.079Z,24.24
2022-11-04T22:02:56.536Z,24.22
2022-11-04T22:05:22.947Z,24.20
2022-11-04T22:07:49.257Z,24.23
2022-11-04T22:10:15.559Z,24.26
2022-11-04T22:12:43.811Z,24.25
2022-11-04T22:15:13.374Z,24.22
2022-11-04T22:17:39.670Z,24.27
2022-11-04T22:20:05.986Z,24.24
